Maher, Colorado
Current Conditions -  °F | °C
As of 6:53 PM on Saturday 25 Oct 2014 (Local Time) from KMTJ Reporting Station
Clear Clear  
Wind Chill: 68°   Ceiling: Unl
Heat Index: 68°   Visibility: 10mi
Dew Point: 31°   Wind: 3mph
Humidity: 25%   Direction: 210°SSW
Pressure: 30.14"   Gusts: NA
Location:  38.53°N, 107.55°W
Report Text: KMTJ 260053Z AUTO 21003KT 10SM CLR 20/M01 A3014 RMK AO2 SLP159 T02001006
Loading
Personal Weather Stations






























Interactive Weather Map
Tropical Storm Tracking
New forecast layout! Learn more

10-Day Weather Forecast

Advertisements
Track Severe Weather on mobile